Time;durP1;ratioP1;P1;durP2;ratioP2;P2;SDS_P1;SDS_P2;PMS_P1;PMS_P2;Temp;Humidity;BMP_temperature;BMP_pressure;BME280_temperature;BME280_humidity;BME280_pressure;Samples;Min_cycle;Max_cycle;Signal;HPM_P1;HPM_P2
2023/06/14 00:00:16;;;;;;;6.28;4.05;;;17.00;73.50;;;;;;5112990;28;20028;-66
2023/06/14 00:02:41;;;;;;;5.25;3.00;;;16.90;73.70;;;;;;5112254;28;20024;-66
2023/06/14 00:05:07;;;;;;;11.70;3.70;;;16.90;74.10;;;;;;5112970;28;20028;-66
2023/06/14 00:07:42;;;;;;;3.72;3.20;;;16.80;74.30;;;;;;5112634;28;20051;-65
2023/06/14 00:10:08;;;;;;;7.30;3.70;;;16.80;74.40;;;;;;5112908;28;20088;-66
2023/06/14 00:12:34;;;;;;;4.45;3.45;;;16.80;74.80;;;;;;5112801;28;20066;-66
2023/06/14 00:15:03;;;;;;;7.97;4.03;;;16.70;74.90;;;;;;5112843;28;20016;-66
2023/06/14 00:17:30;;;;;;;6.45;3.47;;;16.70;75.00;;;;;;5115871;28;20030;-67
2023/06/14 00:19:59;;;;;;;6.00;3.17;;;16.70;75.70;;;;;;5133282;28;20027;-66
2023/06/14 00:22:25;;;;;;;7.07;4.10;;;16.70;75.60;;;;;;5133019;28;20048;-66
2023/06/14 00:24:52;;;;;;;5.60;3.80;;;16.60;75.90;;;;;;5133188;28;20106;-66
2023/06/14 00:27:17;;;;;;;9.15;3.53;;;16.60;76.00;;;;;;5133333;28;20023;-66
2023/06/14 00:29:43;;;;;;;5.03;3.67;;;16.60;75.60;;;;;;5132845;28;20023;-66
2023/06/14 00:32:09;;;;;;;6.63;3.22;;;16.60;75.60;;;;;;5133424;28;20053;-66
2023/06/14 00:34:34;;;;;;;5.47;3.40;;;16.60;76.10;;;;;;5132887;28;20382;-65
2023/06/14 00:37:01;;;;;;;5.07;3.75;;;16.60;75.90;;;;;;5133510;28;20535;-66
2023/06/14 00:39:27;;;;;;;5.82;3.67;;;16.60;76.00;;;;;;5133058;28;20102;-66
2023/06/14 00:41:52;;;;;;;5.50;3.55;;;16.50;76.60;;;;;;5132700;28;20114;-66
2023/06/14 00:44:18;;;;;;;6.45;3.60;;;16.50;76.70;;;;;;5133084;28;20085;-66
2023/06/14 00:46:47;;;;;;;8.25;3.78;;;16.50;76.60;;;;;;5132205;28;20075;-66
2023/06/14 00:49:15;;;;;;;5.88;4.07;;;16.50;76.80;;;;;;5135549;27;20023;-66
2023/06/14 00:51:41;;;;;;;5.25;3.60;;;16.40;77.30;;;;;;5136335;27;20047;-66
2023/06/14 00:54:07;;;;;;;6.85;3.85;;;16.30;78.00;;;;;;5134697;27;20024;-66
2023/06/14 00:56:32;;;;;;;5.95;3.83;;;16.30;78.30;;;;;;5098470;28;20028;-65
2023/06/14 00:58:58;;;;;;;7.97;3.80;;;16.20;78.80;;;;;;5116347;28;20069;-66
2023/06/14 01:01:24;;;;;;;6.55;3.85;;;16.20;79.10;;;;;;5116019;28;20036;-66
2023/06/14 01:03:51;;;;;;;5.47;4.03;;;16.20;79.30;;;;;;5115327;28;20586;-66
2023/06/14 01:06:26;;;;;;;6.20;3.85;;;16.20;79.20;;;;;;5115972;28;20020;-66
2023/06/14 01:08:57;;;;;;;6.07;3.72;;;16.10;79.00;;;;;;5115529;28;20473;-66
2023/06/14 01:11:30;;;;;;;8.35;4.15;;;16.10;79.40;;;;;;5115863;28;20027;-67
2023/06/14 01:13:56;;;;;;;5.68;3.30;;;16.10;79.60;;;;;;5115818;28;20369;-66
2023/06/14 01:16:23;;;;;;;9.43;3.95;;;16.10;79.50;;;;;;5115598;28;20410;-66
2023/06/14 01:18:51;;;;;;;9.90;3.55;;;16.10;79.60;;;;;;5096978;28;20027;-66
2023/06/14 01:21:24;;;;;;;6.25;3.30;;;16.10;80.20;;;;;;5115439;28;20043;-66
2023/06/14 01:23:55;;;;;;;4.95;3.70;;;16.00;80.20;;;;;;5115141;28;20037;-66
2023/06/14 01:26:22;;;;;;;4.20;3.63;;;16.00;80.50;;;;;;5115734;28;20104;-66
2023/06/14 01:28:49;;;;;;;8.68;3.80;;;16.00;80.30;;;;;;5115100;28;20085;-66
2023/06/14 01:31:21;;;;;;;6.78;3.47;;;16.00;80.50;;;;;;5115515;28;20031;-66
2023/06/14 01:33:49;;;;;;;11.52;4.90;;;16.10;80.60;;;;;;5115116;28;20031;-66
2023/06/14 01:36:16;;;;;;;6.78;3.78;;;16.10;80.50;;;;;;5115268;28;20024;-66
2023/06/14 01:38:43;;;;;;;5.65;3.65;;;16.10;80.50;;;;;;5114631;28;20413;-66
2023/06/14 01:41:10;;;;;;;6.95;4.18;;;16.10;81.10;;;;;;5115207;28;20049;-66
2023/06/14 01:43:37;;;;;;;6.18;3.92;;;16.00;80.50;;;;;;5114595;28;20023;-66
2023/06/14 01:46:03;;;;;;;6.07;3.97;;;16.10;80.90;;;;;;5115155;28;20464;-66
2023/06/14 01:48:29;;;;;;;4.65;3.30;;;16.00;80.30;;;;;;5114837;28;20099;-66
2023/06/14 01:50:54;;;;;;;8.65;3.70;;;16.00;80.20;;;;;;5114575;28;20127;-66
2023/06/14 01:53:20;;;;;;;11.25;4.18;;;16.00;80.00;;;;;;5115062;28;20063;-66
2023/06/14 01:55:48;;;;;;;5.65;3.55;;;16.00;80.20;;;;;;5114579;28;20020;-66
2023/06/14 01:58:16;;;;;;;7.43;3.60;;;16.00;80.40;;;;;;5115003;28;20065;-66
2023/06/14 02:00:43;;;;;;;9.93;3.88;;;16.00;80.60;;;;;;5113314;28;20023;-66
2023/06/14 02:03:08;;;;;;;5.68;3.78;;;16.00;80.10;;;;;;5114813;28;20059;-66
2023/06/14 02:05:34;;;;;;;4.15;3.22;;;16.00;80.20;;;;;;5114433;28;20120;-68
2023/06/14 02:08:00;;;;;;;5.22;3.58;;;16.00;80.30;;;;;;5114622;28;20357;-66
2023/06/14 02:10:26;;;;;;;9.00;3.67;;;15.90;80.60;;;;;;5114658;28;20035;-66
2023/06/14 02:12:51;;;;;;;5.35;3.60;;;15.90;80.80;;;;;;5114251;28;20119;-66
2023/06/14 02:15:18;;;;;;;5.22;3.63;;;15.90;81.30;;;;;;5116763;27;20028;-66
2023/06/14 02:17:44;;;;;;;4.88;3.85;;;15.90;81.00;;;;;;5113986;28;20032;-66
2023/06/14 02:20:10;;;;;;;5.47;3.80;;;15.90;80.50;;;;;;5114455;28;20057;-67
2023/06/14 02:22:36;;;;;;;6.95;4.30;;;15.90;80.80;;;;;;5113793;28;20432;-66
2023/06/14 02:25:02;;;;;;;9.52;4.45;;;15.90;81.30;;;;;;5114418;28;20095;-66
2023/06/14 02:27:28;;;;;;;6.85;4.15;;;15.80;81.50;;;;;;5115517;27;20023;-66
2023/06/14 02:29:53;;;;;;;6.47;3.78;;;15.80;81.50;;;;;;5114938;28;20031;-67
2023/06/14 02:32:19;;;;;;;4.43;3.80;;;15.80;82.20;;;;;;5114495;28;20040;-66
2023/06/14 02:34:49;;;;;;;8.32;4.40;;;15.80;82.50;;;;;;5113810;28;20044;-66
2023/06/14 02:37:15;;;;;;;8.40;3.95;;;15.80;82.90;;;;;;5114469;28;20035;-66
2023/06/14 02:39:41;;;;;;;6.95;3.63;;;15.80;82.80;;;;;;5115363;28;20100;-66
2023/06/14 02:42:07;;;;;;;4.22;3.72;;;15.80;82.50;;;;;;5115887;28;20459;-66
2023/06/14 02:44:32;;;;;;;4.72;3.60;;;15.80;81.60;;;;;;5116218;28;20026;-66
2023/06/14 02:47:00;;;;;;;5.50;3.53;;;15.80;81.80;;;;;;5115153;28;20403;-66
2023/06/14 02:49:26;;;;;;;7.10;4.53;;;15.80;82.40;;;;;;5115868;28;20030;-66
2023/06/14 02:51:51;;;;;;;7.10;4.05;;;15.80;82.30;;;;;;5115110;28;20035;-66
2023/06/14 02:54:17;;;;;;;7.97;4.05;;;15.80;82.50;;;;;;5115624;28;20028;-67
2023/06/14 02:56:43;;;;;;;8.63;4.25;;;15.80;82.50;;;;;;5115239;28;20445;-66
2023/06/14 02:59:09;;;;;;;7.45;4.05;;;15.80;82.50;;;;;;5115524;28;20023;-66
2023/06/14 03:01:35;;;;;;;7.25;3.83;;;15.80;82.20;;;;;;5114845;28;20028;-66
2023/06/14 03:04:04;;;;;;;5.72;4.03;;;15.80;81.80;;;;;;5113787;28;20102;-66
2023/06/14 03:06:30;;;;;;;4.80;3.80;;;15.80;82.40;;;;;;5115414;27;20028;-65
2023/06/14 03:08:59;;;;;;;6.15;3.80;;;15.80;82.60;;;;;;5113605;28;20468;-66
2023/06/14 03:11:25;;;;;;;5.05;3.75;;;15.80;82.70;;;;;;5113387;28;20031;-66
2023/06/14 03:13:52;;;;;;;6.75;4.00;;;15.80;82.80;;;;;;5113482;28;20023;-66
2023/06/14 03:16:22;;;;;;;4.28;3.75;;;15.80;83.40;;;;;;5113379;28;20035;-66
2023/06/14 03:18:52;;;;;;;6.50;4.28;;;15.80;83.10;;;;;;5113076;28;20520;-66
2023/06/14 03:21:20;;;;;;;11.02;4.20;;;15.80;83.10;;;;;;5113548;28;20032;-66
2023/06/14 03:23:46;;;;;;;5.03;3.92;;;15.80;83.20;;;;;;5112916;28;20027;-66
2023/06/14 03:26:17;;;;;;;6.13;3.78;;;15.80;82.70;;;;;;5113109;28;20024;-66
2023/06/14 03:28:46;;;;;;;9.63;4.25;;;15.70;82.70;;;;;;5112842;28;20027;-67
2023/06/14 03:31:13;;;;;;;4.35;3.80;;;15.70;83.10;;;;;;5113245;28;20035;-66
2023/06/14 03:33:39;;;;;;;8.02;4.40;;;15.70;83.30;;;;;;5113014;28;20456;-66
2023/06/14 03:36:06;;;;;;;5.35;3.85;;;15.70;82.90;;;;;;5112786;28;20024;-66
2023/06/14 03:38:32;;;;;;;9.93;3.97;;;15.70;82.70;;;;;;5113218;28;20454;-66
2023/06/14 03:40:58;;;;;;;5.70;3.70;;;15.80;82.30;;;;;;5112674;28;20031;-66
2023/06/14 03:43:23;;;;;;;4.32;3.20;;;15.70;81.70;;;;;;5113166;28;20106;-66
2023/06/14 03:45:49;;;;;;;4.75;3.60;;;15.80;81.70;;;;;;5112654;28;20093;-66
2023/06/14 03:48:15;;;;;;;6.13;3.78;;;15.80;81.80;;;;;;5113284;28;20494;-66
2023/06/14 03:50:42;;;;;;;7.57;4.00;;;15.80;81.80;;;;;;5112995;28;20100;-66
2023/06/14 03:53:08;;;;;;;7.88;4.53;;;15.90;81.80;;;;;;5113158;28;20375;-66
2023/06/14 03:55:34;;;;;;;10.38;4.40;;;15.90;81.80;;;;;;5094996;28;20114;-67
2023/06/14 03:58:00;;;;;;;6.78;4.55;;;15.90;82.10;;;;;;5112579;28;20067;-66
2023/06/14 04:00:26;;;;;;;6.50;4.10;;;15.90;82.20;;;;;;5112953;28;20032;-66
2023/06/14 04:02:52;;;;;;;4.88;4.13;;;15.90;82.70;;;;;;5112600;28;20031;-66
2023/06/14 04:05:20;;;;;;;5.18;3.75;;;16.00;82.20;;;;;;5094829;28;20024;-66
2023/06/14 04:07:48;;;;;;;5.10;3.80;;;16.00;81.80;;;;;;5112545;28;20032;-67
2023/06/14 04:10:15;;;;;;;10.52;4.10;;;16.00;81.00;;;;;;5112783;28;20077;-66
2023/06/14 04:12:41;;;;;;;6.47;3.92;;;16.00;81.00;;;;;;5112629;28;20372;-66
2023/06/14 04:15:08;;;;;;;5.47;4.15;;;16.10;80.60;;;;;;5112180;28;20024;-66
2023/06/14 04:17:34;;;;;;;6.63;3.83;;;16.10;80.50;;;;;;5114444;28;20023;-66
2023/06/14 04:20:02;;;;;;;6.43;4.07;;;16.10;81.10;;;;;;5132881;28;20019;-67
2023/06/14 04:22:28;;;;;;;11.18;3.80;;;16.10;81.40;;;;;;5132968;27;20433;-66
2023/06/14 04:24:56;;;;;;;7.40;3.92;;;16.10;82.00;;;;;;5136359;27;20024;-66
2023/06/14 04:27:25;;;;;;;6.75;3.95;;;16.10;81.30;;;;;;5122739;27;20031;-66
2023/06/14 04:29:59;;;;;;;6.60;3.78;;;16.20;80.70;;;;;;5116160;28;20026;-67
2023/06/14 04:32:26;;;;;;;4.65;3.13;;;16.30;80.20;;;;;;5116609;28;20039;-66
2023/06/14 04:34:56;;;;;;;6.28;3.67;;;16.40;80.10;;;;;;5116112;28;20081;-67
2023/06/14 04:37:22;;;;;;;5.45;3.05;;;16.50;78.40;;;;;;5116815;28;20361;-66
2023/06/14 04:39:48;;;;;;;5.38;3.85;;;16.60;77.70;;;;;;5115974;28;20028;-67
2023/06/14 04:42:14;;;;;;;4.95;3.60;;;16.70;77.30;;;;;;5098084;28;20066;-66
2023/06/14 04:44:43;;;;;;;6.70;3.45;;;16.80;77.10;;;;;;5098105;28;20356;-66
2023/06/14 04:47:11;;;;;;;5.07;3.45;;;16.90;76.60;;;;;;5115685;28;20039;-66
2023/06/14 04:49:36;;;;;;;7.07;3.33;;;17.00;76.00;;;;;;5116226;28;20106;-66
2023/06/14 04:52:02;;;;;;;7.20;3.40;;;17.10;76.50;;;;;;5115690;28;20577;-66
2023/06/14 04:54:31;;;;;;;10.20;4.07;;;17.10;76.60;;;;;;5115899;28;20384;-66
2023/06/14 04:56:57;;;;;;;4.60;3.70;;;17.20;76.90;;;;;;5115613;28;20019;-65
2023/06/14 04:59:25;;;;;;;6.95;3.53;;;17.20;76.00;;;;;;5115727;28;20016;-66
2023/06/14 05:01:51;;;;;;;6.00;3.97;;;17.20;75.70;;;;;;5115682;28;20028;-66
2023/06/14 05:04:18;;;;;;;6.38;3.33;;;17.30;75.70;;;;;;5115921;28;20037;-66
2023/06/14 05:06:44;;;;;;;5.40;3.60;;;17.40;75.90;;;;;;5116934;27;20022;-66
2023/06/14 05:09:11;;;;;;;5.82;3.30;;;17.70;75.80;;;;;;5115521;28;20096;-66
2023/06/14 05:11:37;;;;;;;6.85;3.65;;;18.10;73.30;;;;;;5115874;28;20439;-66
2023/06/14 05:14:02;;;;;;;6.43;3.58;;;18.80;73.00;;;;;;5115328;28;20106;-66
2023/06/14 05:16:29;;;;;;;5.03;3.75;;;19.70;70.50;;;;;;5115608;28;20024;-66
2023/06/14 05:18:55;;;;;;;5.70;3.20;;;20.50;67.10;;;;;;5114907;28;20119;-66
2023/06/14 05:21:20;;;;;;;5.68;3.10;;;21.20;63.70;;;;;;5115392;28;20055;-65
2023/06/14 05:23:46;;;;;;;4.53;2.97;;;21.90;61.80;;;;;;5115391;28;20077;-66
2023/06/14 05:26:12;;;;;;;5.95;3.30;;;22.20;59.60;;;;;;5115364;28;20406;-66
2023/06/14 05:28:37;;;;;;;5.10;2.97;;;22.50;57.90;;;;;;5115309;28;20051;-66
2023/06/14 05:31:03;;;;;;;4.63;3.20;;;22.80;58.00;;;;;;5114949;28;20027;-66
2023/06/14 05:33:29;;;;;;;5.38;2.65;;;23.20;56.70;;;;;;5115348;28;20028;-65
2023/06/14 05:35:55;;;;;;;7.70;3.00;;;23.50;54.80;;;;;;5114840;28;20076;-66
2023/06/14 05:38:21;;;;;;;5.30;2.78;;;23.60;52.60;;;;;;5115360;28;20027;-66
2023/06/14 05:40:46;;;;;;;7.25;2.70;;;23.80;52.70;;;;;;5114980;28;20031;-65
2023/06/14 05:43:12;;;;;;;6.07;3.17;;;23.90;51.00;;;;;;5114712;28;20032;-66
2023/06/14 05:45:38;;;;;;;8.38;2.90;;;23.70;50.20;;;;;;5115249;28;20048;-65
2023/06/14 05:48:03;;;;;;;6.55;2.95;;;23.40;51.40;;;;;;5114618;28;20484;-65
2023/06/14 05:50:30;;;;;;;4.20;3.10;;;23.00;51.80;;;;;;5115115;28;20062;-65
2023/06/14 05:52:55;;;;;;;6.13;3.10;;;23.00;52.30;;;;;;5114644;28;20038;-65
2023/06/14 05:55:21;;;;;;;5.55;3.03;;;23.10;52.40;;;;;;5115064;28;20027;-65
2023/06/14 05:57:48;;;;;;;5.05;2.97;;;23.30;51.70;;;;;;5114745;28;20049;-65
2023/06/14 06:00:15;;;;;;;9.68;3.13;;;23.70;51.40;;;;;;5114135;28;20464;-67
2023/06/14 06:02:45;;;;;;;6.50;2.67;;;24.30;50.30;;;;;;5114546;28;20426;-65
2023/06/14 06:05:15;;;;;;;7.32;3.00;;;25.00;48.90;;;;;;5114257;28;20023;-66
2023/06/14 06:07:41;;;;;;;5.43;2.90;;;25.70;47.60;;;;;;5114833;28;20049;-66
2023/06/14 06:10:08;;;;;;;4.93;3.53;;;26.40;46.50;;;;;;5114131;28;20333;-66
2023/06/14 06:12:33;;;;;;;4.90;3.03;;;26.90;45.90;;;;;;5114493;28;20034;-66
2023/06/14 06:15:00;;;;;;;5.20;3.10;;;27.30;44.30;;;;;;5113939;28;20028;-66
2023/06/14 06:17:26;;;;;;;11.02;4.25;;;26.90;43.30;;;;;;5116837;27;20383;-66
2023/06/14 06:19:52;;;;;;;6.57;3.28;;;26.20;45.50;;;;;;5114399;28;20073;-65
2023/06/14 06:22:17;;;;;;;8.95;2.80;;;25.70;45.90;;;;;;5113875;28;20376;-65
2023/06/14 06:24:43;;;;;;;4.68;3.20;;;26.20;46.50;;;;;;5114488;27;20397;-66
2023/06/14 06:27:09;;;;;;;4.22;2.75;;;27.10;44.40;;;;;;5133011;27;20023;-66
2023/06/14 06:29:35;;;;;;;4.90;2.88;;;27.70;42.60;;;;;;5134722;27;20053;-65
2023/06/14 06:32:01;;;;;;;8.13;3.00;;;27.60;42.30;;;;;;5134220;27;20356;-65
2023/06/14 06:34:27;;;;;;;5.18;2.65;;;28.10;42.70;;;;;;5116497;27;20033;-66
2023/06/14 06:36:52;;;;;;;4.20;2.67;;;28.90;41.90;;;;;;5134504;27;20150;-67
2023/06/14 06:39:18;;;;;;;4.95;2.63;;;29.50;41.00;;;;;;5133778;27;20019;-66
2023/06/14 06:41:43;;;;;;;5.38;2.88;;;30.10;40.00;;;;;;5134447;27;20033;-66
2023/06/14 06:44:12;;;;;;;5.03;2.70;;;30.50;38.20;;;;;;5134086;27;20034;-67
2023/06/14 06:46:42;;;;;;;4.55;2.80;;;30.80;38.00;;;;;;5133829;27;20069;-66
2023/06/14 06:49:08;;;;;;;3.08;2.42;;;31.40;37.30;;;;;;5133819;27;20027;-66
2023/06/14 06:51:36;;;;;;;4.10;2.75;;;31.60;36.40;;;;;;5134218;27;20570;-66
2023/06/14 06:54:02;;;;;;;4.55;2.50;;;31.60;36.10;;;;;;5133912;27;20383;-66
2023/06/14 06:56:28;;;;;;;4.80;2.70;;;31.80;35.80;;;;;;5134170;27;20069;-65
2023/06/14 06:58:54;;;;;;;3.83;2.40;;;31.80;34.60;;;;;;5134216;27;20059;-66
2023/06/14 07:01:19;;;;;;;3.97;2.58;;;31.60;34.40;;;;;;5134098;27;20464;-66
2023/06/14 07:03:45;;;;;;;5.25;2.50;;;31.50;34.80;;;;;;5134073;27;20031;-67
2023/06/14 07:06:11;;;;;;;7.80;2.90;;;31.40;34.30;;;;;;5133624;27;20019;-67
2023/06/14 07:08:40;;;;;;;6.22;2.40;;;31.10;35.30;;;;;;5133989;27;20035;-67
2023/06/14 07:11:06;;;;;;;4.90;2.67;;;31.10;36.00;;;;;;5133235;27;20399;-66
2023/06/14 07:13:31;;;;;;;7.05;2.88;;;31.20;35.00;;;;;;5129994;27;20025;-67
2023/06/14 07:15:59;;;;;;;3.97;2.30;;;31.10;35.20;;;;;;5133375;27;20029;-68
2023/06/14 07:18:25;;;;;;;4.18;2.85;;;31.30;36.50;;;;;;5134104;27;20027;-67
2023/06/14 07:20:50;;;;;;;3.15;2.70;;;31.40;35.10;;;;;;5133410;27;20031;-67
2023/06/14 07:23:16;;;;;;;9.65;2.80;;;31.40;34.80;;;;;;5133677;27;20023;-67
2023/06/14 07:25:41;;;;;;;2.92;2.38;;;31.20;35.30;;;;;;5133644;27;20028;-67
2023/06/14 07:28:07;;;;;;;7.32;2.95;;;31.00;35.50;;;;;;5133621;27;20031;-67
2023/06/14 07:30:33;;;;;;;5.45;2.47;;;31.40;35.30;;;;;;5133563;27;20436;-67
2023/06/14 07:32:58;;;;;;;8.35;2.38;;;31.00;35.80;;;;;;5133231;27;20497;-68
2023/06/14 07:35:24;;;;;;;5.22;2.40;;;31.70;35.50;;;;;;5134240;27;20034;-67
2023/06/14 07:37:49;;;;;;;3.05;2.50;;;32.00;35.50;;;;;;5135340;27;20049;-67
2023/06/14 07:40:15;;;;;;;3.50;2.60;;;32.30;34.90;;;;;;5116882;28;20451;-67
2023/06/14 07:42:41;;;;;;;6.13;3.15;;;32.10;33.90;;;;;;5134407;27;20023;-67
2023/06/14 07:45:07;;;;;;;5.78;2.70;;;31.80;34.10;;;;;;5133159;27;20055;-67
2023/06/14 07:47:33;;;;;;;7.20;2.80;;;31.90;33.90;;;;;;5133696;28;20019;-67
2023/06/14 07:49:59;;;;;;;7.60;2.65;;;31.60;34.30;;;;;;5133042;28;20046;-68
2023/06/14 07:52:25;;;;;;;5.45;2.95;;;31.50;34.70;;;;;;5133390;28;20088;-67
2023/06/14 07:54:51;;;;;;;4.45;2.67;;;31.20;34.20;;;;;;5133613;28;20030;-67
2023/06/14 07:57:17;;;;;;;3.65;2.60;;;31.10;34.80;;;;;;5132804;27;20102;-67
2023/06/14 07:59:42;;;;;;;4.88;2.70;;;31.30;34.90;;;;;;5137287;27;20027;-67
2023/06/14 08:02:08;;;;;;;4.43;2.58;;;31.20;35.10;;;;;;5137582;27;20027;-66
2023/06/14 08:04:34;;;;;;;4.75;2.58;;;31.40;34.50;;;;;;5137687;27;20114;-66
2023/06/14 08:07:00;;;;;;;3.65;2.28;;;31.60;35.40;;;;;;5137371;27;20525;-66
2023/06/14 08:09:28;;;;;;;3.65;2.90;;;31.40;34.50;;;;;;5137217;27;20050;-66
2023/06/14 08:11:54;;;;;;;4.40;2.40;;;31.40;34.50;;;;;;5137338;27;20035;-66
2023/06/14 08:14:19;;;;;;;2.63;2.10;;;30.90;33.90;;;;;;5137077;27;20035;-66
2023/06/14 08:16:45;;;;;;;5.45;2.80;;;30.70;34.90;;;;;;5137435;27;20434;-67
2023/06/14 08:19:11;;;;;;;3.80;2.42;;;30.50;35.40;;;;;;5136829;27;20392;-66
2023/06/14 08:21:37;;;;;;;7.07;2.28;;;30.50;35.00;;;;;;5137244;27;20058;-66
2023/06/14 08:24:03;;;;;;;4.07;2.80;;;30.40;36.90;;;;;;5137378;27;20340;-66
2023/06/14 08:26:29;;;;;;;4.10;2.60;;;30.10;35.80;;;;;;5129729;27;20031;-66
2023/06/14 08:28:55;;;;;;;4.55;2.40;;;29.60;35.60;;;;;;5116366;28;20031;-66
2023/06/14 08:31:22;;;;;;;5.78;2.50;;;29.10;36.80;;;;;;5115986;28;20027;-66
2023/06/14 08:33:47;;;;;;;5.07;2.75;;;28.60;36.90;;;;;;5116385;28;20486;-66
2023/06/14 08:36:13;;;;;;;5.53;2.53;;;28.10;37.50;;;;;;5116015;28;20106;-66
2023/06/14 08:38:39;;;;;;;4.40;2.80;;;27.90;38.50;;;;;;5116340;28;20024;-66
2023/06/14 08:41:09;;;;;;;7.40;2.78;;;27.60;39.50;;;;;;5115926;28;20115;-66
2023/06/14 08:43:34;;;;;;;4.55;3.00;;;27.10;39.80;;;;;;5116323;28;20031;-66
2023/06/14 08:46:06;;;;;;;6.32;2.80;;;26.90;39.90;;;;;;5115877;28;20056;-66
2023/06/14 08:48:33;;;;;;;4.28;2.92;;;26.70;41.30;;;;;;5116177;28;20020;-66
2023/06/14 08:51:04;;;;;;;2.75;2.45;;;26.50;41.10;;;;;;5115897;28;20035;-66
2023/06/14 08:53:33;;;;;;;;;;;26.40;42.20;;;;;;5116563;28;20107;-66
2023/06/14 08:56:04;;;;;;;4.25;2.90;;;26.20;42.70;;;;;;5116015;28;19929;-66
2023/06/14 08:58:31;;;;;;;8.27;2.80;;;26.10;43.50;;;;;;5097723;28;20119;-65
2023/06/14 09:01:02;;;;;;;6.45;2.70;;;26.10;43.90;;;;;;5115886;28;20070;-66
2023/06/14 09:03:30;;;;;;;;;;;26.10;44.00;;;;;;5115939;28;20027;-66
2023/06/14 09:06:00;;;;;;;4.57;2.78;;;26.00;44.20;;;;;;5115829;28;19904;-66
2023/06/14 09:08:30;;;;;;;5.35;3.90;;;25.80;44.20;;;;;;5115025;28;20054;-65
2023/06/14 09:10:56;;;;;;;8.43;3.00;;;25.90;45.30;;;;;;5115570;28;20464;-65
2023/06/14 09:13:22;;;;;;;4.65;2.67;;;25.90;45.10;;;;;;5115554;28;20059;-67
2023/06/14 09:15:47;;;;;;;12.98;3.22;;;25.90;44.80;;;;;;5115696;28;20054;-66
2023/06/14 09:18:13;;;;;;;8.55;3.22;;;25.90;45.30;;;;;;5096833;28;20020;-65
2023/06/14 09:20:40;;;;;;;7.53;2.88;;;25.80;44.10;;;;;;5118059;27;20027;-66
2023/06/14 09:23:07;;;;;;;10.68;2.90;;;25.60;44.60;;;;;;5115135;28;20468;-68
2023/06/14 09:25:41;;;;;;;6.93;3.10;;;25.80;45.50;;;;;;5115478;28;20485;-65
2023/06/14 09:28:10;;;;;;;4.57;2.97;;;25.80;44.00;;;;;;5114802;28;20024;-67
2023/06/14 09:30:39;;;;;;;4.55;3.13;;;25.80;45.00;;;;;;5115403;28;20417;-66
2023/06/14 09:33:05;;;;;;;9.63;3.00;;;25.70;44.10;;;;;;5115293;28;20035;-67
2023/06/14 09:35:32;;;;;;;3.85;2.95;;;25.60;43.60;;;;;;5096796;28;20048;-66
2023/06/14 09:37:57;;;;;;;4.93;2.60;;;25.50;44.80;;;;;;5115271;28;20019;-67
2023/06/14 09:40:23;;;;;;;6.68;3.17;;;25.50;43.90;;;;;;5114868;28;20027;-67
2023/06/14 09:42:49;;;;;;;4.88;2.70;;;25.50;45.20;;;;;;5114941;28;20448;-66
2023/06/14 09:45:21;;;;;;;6.88;3.03;;;25.40;43.70;;;;;;5114522;28;20352;-66
2023/06/14 09:47:49;;;;;;;6.50;2.80;;;25.50;44.20;;;;;;5115105;28;20020;-64
2023/06/14 09:50:15;;;;;;;7.25;2.97;;;25.20;43.50;;;;;;5114372;28;20032;-65
2023/06/14 09:52:44;;;;;;;4.50;2.90;;;25.00;44.00;;;;;;5114775;28;20036;-66
2023/06/14 09:55:13;;;;;;;4.57;2.90;;;25.00;44.70;;;;;;5114228;28;20027;-66
2023/06/14 09:57:42;;;;;;;3.85;2.53;;;25.00;44.30;;;;;;5114620;28;20031;-66
2023/06/14 10:00:11;;;;;;;4.32;2.88;;;25.10;45.00;;;;;;5114636;28;20024;-66
2023/06/14 10:02:39;;;;;;;10.82;3.22;;;25.10;43.90;;;;;;5114597;28;20461;-66
2023/06/14 10:05:07;;;;;;;3.10;2.58;;;25.00;44.20;;;;;;5114121;28;20383;-65
2023/06/14 10:07:53;;;;;;;4.35;2.90;;;24.90;44.90;;;;;;5114007;28;20024;-66
2023/06/14 10:10:19;;;;;;;7.35;2.70;;;24.80;45.30;;;;;;5114028;28;20024;-66
2023/06/14 10:12:46;;;;;;;6.22;2.58;;;24.70;44.70;;;;;;5114472;28;20361;-66
2023/06/14 10:15:25;;;;;;;6.07;2.90;;;24.80;45.40;;;;;;5113788;28;20372;-66
2023/06/14 10:17:59;;;;;;;4.30;2.50;;;24.70;44.60;;;;;;5114526;28;20019;-66
2023/06/14 10:20:49;;;;;;;3.83;2.50;;;24.80;44.30;;;;;;5132921;27;20061;-65
2023/06/14 10:23:22;;;;;;;3.58;2.42;;;24.70;42.70;;;;;;5133969;27;20498;-66
2023/06/14 10:25:56;;;;;;;3.25;2.78;;;24.80;42.50;;;;;;5135013;27;20035;-66
2023/06/14 10:28:24;;;;;;;2.88;2.17;;;24.70;43.10;;;;;;5134253;27;20058;-66
2023/06/14 10:31:08;;;;;;;6.15;2.80;;;24.70;44.00;;;;;;5134429;27;20038;-65
2023/06/14 10:33:53;;;;;;;5.13;2.72;;;24.80;44.60;;;;;;5134094;27;20027;-66
2023/06/14 10:36:22;;;;;;;3.67;2.58;;;24.70;43.90;;;;;;5130658;27;20034;-66
2023/06/14 10:38:58;;;;;;;4.18;2.20;;;24.70;43.10;;;;;;5134127;27;20029;-66
2023/06/14 10:41:27;;;;;;;4.22;2.40;;;24.70;41.60;;;;;;5134025;27;20053;-66
2023/06/14 10:44:10;;;;;;;5.32;3.15;;;24.60;42.30;;;;;;5134342;27;20019;-67
2023/06/14 10:46:36;;;;;;;4.57;2.10;;;24.70;42.60;;;;;;5133939;27;20051;-66
2023/06/14 10:49:03;;;;;;;8.75;2.50;;;24.60;40.90;;;;;;5134139;27;20048;-66
2023/06/14 10:51:30;;;;;;;3.10;2.25;;;24.50;40.90;;;;;;5133637;27;20027;-66
2023/06/14 10:53:58;;;;;;;4.85;2.28;;;24.40;40.90;;;;;;5134291;27;20117;-65
2023/06/14 10:56:30;;;;;;;3.85;2.70;;;24.30;42.30;;;;;;5133265;27;20114;-67
2023/06/14 10:58:59;;;;;;;3.72;2.20;;;24.30;41.80;;;;;;5134252;27;20019;-67
2023/06/14 11:01:38;;;;;;;5.57;2.65;;;24.30;43.50;;;;;;5133650;27;20117;-67
2023/06/14 11:04:10;;;;;;;5.95;2.55;;;24.50;44.00;;;;;;5134052;27;20066;-67
2023/06/14 11:06:46;;;;;;;3.22;2.58;;;24.60;44.00;;;;;;5133502;27;20047;-67
2023/06/14 11:10:03;;;;;;;5.28;2.67;;;24.60;43.70;;;;;;5133882;27;20391;-67
2023/06/14 11:12:32;;;;;;;6.25;2.55;;;24.50;43.40;;;;;;5087598;27;20043;-67
2023/06/14 11:14:58;;;;;;;6.05;2.72;;;24.70;45.00;;;;;;5133501;27;20032;-67
2023/06/14 11:17:24;;;;;;;6.50;2.83;;;24.90;45.60;;;;;;5133545;27;20023;-67
2023/06/14 11:19:50;;;;;;;6.80;2.78;;;24.80;43.60;;;;;;5133830;27;20019;-66
2023/06/14 11:22:16;;;;;;;4.13;2.58;;;24.90;44.00;;;;;;5114788;27;20069;-68
2023/06/14 11:24:43;;;;;;;5.07;2.50;;;24.80;43.60;;;;;;5132125;27;20019;-67
2023/06/14 11:27:09;;;;;;;5.05;2.40;;;24.90;43.70;;;;;;5115277;27;20441;-67
2023/06/14 11:29:34;;;;;;;5.03;2.50;;;24.70;42.80;;;;;;5112856;28;20154;-67
2023/06/14 11:32:00;;;;;;;4.45;2.80;;;24.70;43.20;;;;;;5112715;28;20031;-67
2023/06/14 11:34:26;;;;;;;3.03;2.15;;;24.70;44.60;;;;;;5112799;28;20031;-67
2023/06/14 11:36:51;;;;;;;3.97;2.53;;;24.60;45.20;;;;;;5113173;28;20102;-67
2023/06/14 11:39:17;;;;;;;6.40;2.70;;;24.50;44.50;;;;;;5112744;28;20028;-67
2023/06/14 11:41:44;;;;;;;6.53;2.80;;;24.40;44.50;;;;;;5113005;28;20032;-67
2023/06/14 11:44:10;;;;;;;5.38;2.33;;;24.30;44.90;;;;;;5112983;28;20110;-66
2023/06/14 11:46:36;;;;;;;4.53;2.83;;;24.20;45.10;;;;;;5112101;28;20365;-67
2023/06/14 11:49:04;;;;;;;5.75;2.85;;;24.20;45.80;;;;;;5112679;28;20030;-66
2023/06/14 11:51:31;;;;;;;4.45;2.42;;;24.10;45.10;;;;;;5112271;28;20060;-65
2023/06/14 11:53:58;;;;;;;3.30;2.35;;;24.00;45.10;;;;;;5112772;28;20055;-66
2023/06/14 11:56:25;;;;;;;6.68;2.60;;;24.00;45.40;;;;;;5112472;28;20042;-65
2023/06/14 11:58:51;;;;;;;3.15;2.63;;;23.90;44.90;;;;;;5112332;28;20461;-65
2023/06/14 12:01:17;;;;;;;4.70;2.17;;;23.80;44.20;;;;;;5112606;28;20067;-65
2023/06/14 12:03:54;;;;;;;7.40;2.72;;;23.80;44.30;;;;;;5112726;28;20050;-66
2023/06/14 12:06:35;;;;;;;5.20;2.90;;;23.70;44.80;;;;;;5111768;28;20023;-65
2023/06/14 12:09:07;;;;;;;8.32;2.50;;;23.60;45.00;;;;;;5112684;28;20022;-65
2023/06/14 12:11:34;;;;;;;3.42;2.50;;;23.50;44.90;;;;;;5113225;28;20111;-65
2023/06/14 12:14:01;;;;;;;3.47;2.20;;;23.60;44.40;;;;;;5112669;28;20032;-66
2023/06/14 12:16:34;;;;;;;6.25;2.38;;;23.60;45.10;;;;;;5112068;28;20071;-66
2023/06/14 12:19:16;;;;;;;3.47;2.17;;;23.60;45.30;;;;;;5112371;28;20019;-65
2023/06/14 12:21:47;;;;;;;2.90;2.10;;;23.60;43.80;;;;;;5111678;28;20438;-65
2023/06/14 12:24:13;;;;;;;6.85;2.50;;;23.60;43.80;;;;;;5112745;28;20081;-65
2023/06/14 12:26:40;;;;;;;3.63;2.53;;;23.60;44.00;;;;;;5112104;28;20415;-65
2023/06/14 12:29:07;;;;;;;3.55;2.25;;;23.50;44.00;;;;;;5112518;28;20376;-65
2023/06/14 12:31:33;;;;;;;3.78;2.20;;;23.50;44.20;;;;;;5113940;28;20047;-66
2023/06/14 12:33:59;;;;;;;5.10;2.55;;;23.50;43.50;;;;;;5112317;28;20028;-66
2023/06/14 12:36:25;;;;;;;6.45;2.70;;;23.50;43.10;;;;;;5111907;28;20525;-65
2023/06/14 12:38:53;;;;;;;5.13;2.70;;;23.50;42.20;;;;;;5112583;28;20510;-65
2023/06/14 12:41:21;;;;;;;5.63;2.75;;;23.40;43.10;;;;;;5112729;28;20102;-65
2023/06/14 12:43:47;;;;;;;4.80;2.75;;;23.40;43.50;;;;;;5112851;28;20024;-66
2023/06/14 12:46:12;;;;;;;4.28;2.88;;;23.30;43.20;;;;;;5115785;28;20381;-66
2023/06/14 12:48:38;;;;;;;6.22;2.60;;;23.30;43.90;;;;;;5115534;28;20449;-66